sensor_id;sensor_type;location;lat;lon;timestamp;temperature;humidity
58469;DHT22;44257;44.804;10.220;2023-08-17T00:02:13;24.90;99.90
58469;DHT22;44257;44.804;10.220;2023-08-17T00:04:39;24.80;99.90
58469;DHT22;44257;44.804;10.220;2023-08-17T00:07:05;24.80;99.90
58469;DHT22;44257;44.804;10.220;2023-08-17T00:09:32;24.90;99.90
58469;DHT22;44257;44.804;10.220;2023-08-17T00:11:58;24.90;99.90
58469;DHT22;44257;44.804;10.220;2023-08-17T00:14:25;24.80;99.90
58469;DHT22;44257;44.804;10.220;2023-08-17T00:16:51;24.80;99.90
58469;DHT22;44257;44.804;10.220;2023-08-17T00:19:17;24.80;99.90
58469;DHT22;44257;44.804;10.220;2023-08-17T00:21:44;24.80;99.90
58469;DHT22;44257;44.804;10.220;2023-08-17T00:24:11;24.70;99.90
58469;DHT22;44257;44.804;10.220;2023-08-17T00:26:37;24.60;99.90
58469;DHT22;44257;44.804;10.220;2023-08-17T00:29:04;24.60;99.90
58469;DHT22;44257;44.804;10.220;2023-08-17T00:31:30;24.60;99.90
58469;DHT22;44257;44.804;10.220;2023-08-17T00:33:56;24.50;99.90
58469;DHT22;44257;44.804;10.220;2023-08-17T00:36:23;24.50;99.90
58469;DHT22;44257;44.804;10.220;2023-08-17T00:38:49;24.50;99.90
58469;DHT22;44257;44.804;10.220;2023-08-17T00:41:15;24.40;99.90
58469;DHT22;44257;44.804;10.220;2023-08-17T00:43:41;24.30;99.90
58469;DHT22;44257;44.804;10.220;2023-08-17T00:46:07;24.30;99.90
58469;DHT22;44257;44.804;10.220;2023-08-17T00:48:33;24.20;99.90
58469;DHT22;44257;44.804;10.220;2023-08-17T00:51:00;24.10;99.90
58469;DHT22;44257;44.804;10.220;2023-08-17T00:53:28;24.10;99.90
58469;DHT22;44257;44.804;10.220;2023-08-17T00:55:55;24.00;99.90
58469;DHT22;44257;44.804;10.220;2023-08-17T00:58:21;24.00;99.90
58469;DHT22;44257;44.804;10.220;2023-08-17T01:00:47;24.00;99.90
58469;DHT22;44257;44.804;10.220;2023-08-17T01:03:13;24.00;99.90
58469;DHT22;44257;44.804;10.220;2023-08-17T01:05:40;23.90;99.90
58469;DHT22;44257;44.804;10.220;2023-08-17T01:08:06;23.90;99.90
58469;DHT22;44257;44.804;10.220;2023-08-17T01:13:36;23.90;99.90
58469;DHT22;44257;44.804;10.220;2023-08-17T01:16:05;23.90;99.90
58469;DHT22;44257;44.804;10.220;2023-08-17T01:18:35;23.80;99.90
58469;DHT22;44257;44.804;10.220;2023-08-17T01:21:06;23.70;99.90
58469;DHT22;44257;44.804;10.220;2023-08-17T01:23:32;23.70;99.90
58469;DHT22;44257;44.804;10.220;2023-08-17T01:25:58;23.60;99.90
58469;DHT22;44257;44.804;10.220;2023-08-17T01:28:24;23.60;99.90
58469;DHT22;44257;44.804;10.220;2023-08-17T01:31:25;23.60;99.90
58469;DHT22;44257;44.804;10.220;2023-08-17T01:33:52;23.50;99.90
58469;DHT22;44257;44.804;10.220;2023-08-17T01:36:25;23.50;99.90
58469;DHT22;44257;44.804;10.220;2023-08-17T01:38:52;23.50;99.90
58469;DHT22;44257;44.804;10.220;2023-08-17T01:41:23;23.50;99.90
58469;DHT22;44257;44.804;10.220;2023-08-17T01:43:51;23.50;99.90
58469;DHT22;44257;44.804;10.220;2023-08-17T01:46:19;23.40;99.90
58469;DHT22;44257;44.804;10.220;2023-08-17T01:48:45;23.40;99.90
58469;DHT22;44257;44.804;10.220;2023-08-17T01:51:19;23.40;99.90
58469;DHT22;44257;44.804;10.220;2023-08-17T01:53:46;23.40;99.90
58469;DHT22;44257;44.804;10.220;2023-08-17T01:56:12;23.40;99.90
58469;DHT22;44257;44.804;10.220;2023-08-17T01:58:37;23.40;99.90
58469;DHT22;44257;44.804;10.220;2023-08-17T02:01:04;23.30;99.90
58469;DHT22;44257;44.804;10.220;2023-08-17T02:03:30;23.30;99.90
58469;DHT22;44257;44.804;10.220;2023-08-17T02:05:57;23.30;99.90
58469;DHT22;44257;44.804;10.220;2023-08-17T02:08:23;23.20;99.90
58469;DHT22;44257;44.804;10.220;2023-08-17T02:10:49;23.20;99.90
58469;DHT22;44257;44.804;10.220;2023-08-17T02:13:15;23.20;99.90
58469;DHT22;44257;44.804;10.220;2023-08-17T02:15:41;23.20;99.90
58469;DHT22;44257;44.804;10.220;2023-08-17T02:18:07;23.20;99.90
58469;DHT22;44257;44.804;10.220;2023-08-17T02:20:34;23.10;99.90
58469;DHT22;44257;44.804;10.220;2023-08-17T02:23:00;23.10;99.90
58469;DHT22;44257;44.804;10.220;2023-08-17T02:25:27;23.10;99.90
58469;DHT22;44257;44.804;10.220;2023-08-17T02:27:59;23.00;99.90
58469;DHT22;44257;44.804;10.220;2023-08-17T02:30:26;23.00;99.90
58469;DHT22;44257;44.804;10.220;2023-08-17T02:32:52;22.90;99.90
58469;DHT22;44257;44.804;10.220;2023-08-17T02:35:18;22.90;99.90
58469;DHT22;44257;44.804;10.220;2023-08-17T02:37:44;22.90;99.90
58469;DHT22;44257;44.804;10.220;2023-08-17T02:40:10;22.90;99.90
58469;DHT22;44257;44.804;10.220;2023-08-17T02:42:37;22.90;99.90
58469;DHT22;44257;44.804;10.220;2023-08-17T02:45:03;22.80;99.90
58469;DHT22;44257;44.804;10.220;2023-08-17T02:47:30;22.80;99.90
58469;DHT22;44257;44.804;10.220;2023-08-17T02:49:55;22.80;99.90
58469;DHT22;44257;44.804;10.220;2023-08-17T02:52:21;22.80;99.90
58469;DHT22;44257;44.804;10.220;2023-08-17T02:54:47;22.70;99.90
58469;DHT22;44257;44.804;10.220;2023-08-17T02:57:13;22.70;99.90
58469;DHT22;44257;44.804;10.220;2023-08-17T02:59:39;22.60;99.90
58469;DHT22;44257;44.804;10.220;2023-08-17T03:02:05;22.70;99.90
58469;DHT22;44257;44.804;10.220;2023-08-17T03:04:30;22.60;99.90
58469;DHT22;44257;44.804;10.220;2023-08-17T03:06:56;22.60;99.90
58469;DHT22;44257;44.804;10.220;2023-08-17T03:09:22;22.60;99.90
58469;DHT22;44257;44.804;10.220;2023-08-17T03:11:48;22.60;99.90
58469;DHT22;44257;44.804;10.220;2023-08-17T03:14:15;22.50;99.90
58469;DHT22;44257;44.804;10.220;2023-08-17T03:16:40;22.50;99.90
58469;DHT22;44257;44.804;10.220;2023-08-17T03:19:06;22.50;99.90
58469;DHT22;44257;44.804;10.220;2023-08-17T03:21:34;22.40;99.90
58469;DHT22;44257;44.804;10.220;2023-08-17T03:23:59;22.40;99.90
58469;DHT22;44257;44.804;10.220;2023-08-17T03:26:25;22.40;99.90
58469;DHT22;44257;44.804;10.220;2023-08-17T03:28:51;22.30;99.90
58469;DHT22;44257;44.804;10.220;2023-08-17T03:31:20;22.30;99.90
58469;DHT22;44257;44.804;10.220;2023-08-17T03:33:47;22.30;99.90
58469;DHT22;44257;44.804;10.220;2023-08-17T03:36:13;22.30;99.90
58469;DHT22;44257;44.804;10.220;2023-08-17T03:38:39;22.30;99.90
58469;DHT22;44257;44.804;10.220;2023-08-17T03:41:06;22.30;99.90
58469;DHT22;44257;44.804;10.220;2023-08-17T03:43:32;22.20;99.90
58469;DHT22;44257;44.804;10.220;2023-08-17T03:45:59;22.20;99.90
58469;DHT22;44257;44.804;10.220;2023-08-17T03:48:25;22.20;99.90
58469;DHT22;44257;44.804;10.220;2023-08-17T03:50:52;22.20;99.90
58469;DHT22;44257;44.804;10.220;2023-08-17T03:53:19;22.20;99.90
58469;DHT22;44257;44.804;10.220;2023-08-17T03:55:48;22.20;99.90
58469;DHT22;44257;44.804;10.220;2023-08-17T03:58:14;22.10;99.90
58469;DHT22;44257;44.804;10.220;2023-08-17T04:00:40;22.10;99.90
58469;DHT22;44257;44.804;10.220;2023-08-17T04:03:07;22.10;99.90
58469;DHT22;44257;44.804;10.220;2023-08-17T04:05:34;22.10;99.90
58469;DHT22;44257;44.804;10.220;2023-08-17T04:08:00;22.00;99.90
58469;DHT22;44257;44.804;10.220;2023-08-17T04:10:28;22.00;99.90
58469;DHT22;44257;44.804;10.220;2023-08-17T04:12:58;21.90;99.90
58469;DHT22;44257;44.804;10.220;2023-08-17T04:15:24;21.90;99.90
58469;DHT22;44257;44.804;10.220;2023-08-17T04:17:49;21.90;99.90
58469;DHT22;44257;44.804;10.220;2023-08-17T04:20:16;21.90;99.90
58469;DHT22;44257;44.804;10.220;2023-08-17T04:22:44;21.90;99.90
58469;DHT22;44257;44.804;10.220;2023-08-17T04:25:11;21.90;99.90
58469;DHT22;44257;44.804;10.220;2023-08-17T04:27:37;21.90;99.90
58469;DHT22;44257;44.804;10.220;2023-08-17T04:30:03;22.00;99.90
58469;DHT22;44257;44.804;10.220;2023-08-17T04:32:35;22.00;99.90
58469;DHT22;44257;44.804;10.220;2023-08-17T04:35:01;22.00;99.90
58469;DHT22;44257;44.804;10.220;2023-08-17T04:37:27;22.00;99.90
58469;DHT22;44257;44.804;10.220;2023-08-17T04:39:53;22.10;99.90
58469;DHT22;44257;44.804;10.220;2023-08-17T04:42:20;22.20;99.90
58469;DHT22;44257;44.804;10.220;2023-08-17T04:44:46;22.30;99.90
58469;DHT22;44257;44.804;10.220;2023-08-17T04:47:12;22.40;99.90
58469;DHT22;44257;44.804;10.220;2023-08-17T04:49:38;22.40;99.90
58469;DHT22;44257;44.804;10.220;2023-08-17T04:52:04;22.50;99.90
58469;DHT22;44257;44.804;10.220;2023-08-17T04:54:30;22.60;99.90
58469;DHT22;44257;44.804;10.220;2023-08-17T04:56:56;22.70;99.90
58469;DHT22;44257;44.804;10.220;2023-08-17T04:59:22;22.80;99.90
58469;DHT22;44257;44.804;10.220;2023-08-17T05:01:47;22.80;99.90
58469;DHT22;44257;44.804;10.220;2023-08-17T05:04:13;23.00;99.90
58469;DHT22;44257;44.804;10.220;2023-08-17T05:06:39;23.10;99.90
58469;DHT22;44257;44.804;10.220;2023-08-17T05:09:05;23.20;99.90
58469;DHT22;44257;44.804;10.220;2023-08-17T05:11:31;23.20;99.90
58469;DHT22;44257;44.804;10.220;2023-08-17T05:13:57;23.20;99.90
58469;DHT22;44257;44.804;10.220;2023-08-17T05:16:24;23.20;99.90
58469;DHT22;44257;44.804;10.220;2023-08-17T05:18:50;23.30;99.90
58469;DHT22;44257;44.804;10.220;2023-08-17T05:21:16;23.30;99.90
58469;DHT22;44257;44.804;10.220;2023-08-17T05:23:42;23.40;99.90
58469;DHT22;44257;44.804;10.220;2023-08-17T05:26:07;23.50;99.90
58469;DHT22;44257;44.804;10.220;2023-08-17T05:28:34;23.70;99.90
58469;DHT22;44257;44.804;10.220;2023-08-17T05:31:05;24.00;99.90
58469;DHT22;44257;44.804;10.220;2023-08-17T05:33:35;24.20;99.90
58469;DHT22;44257;44.804;10.220;2023-08-17T05:36:01;24.50;99.90
58469;DHT22;44257;44.804;10.220;2023-08-17T05:38:27;24.70;99.90
58469;DHT22;44257;44.804;10.220;2023-08-17T05:40:56;25.00;99.90
58469;DHT22;44257;44.804;10.220;2023-08-17T05:43:23;25.20;99.90
58469;DHT22;44257;44.804;10.220;2023-08-17T05:45:49;25.50;99.90
58469;DHT22;44257;44.804;10.220;2023-08-17T05:48:17;25.70;99.90
58469;DHT22;44257;44.804;10.220;2023-08-17T05:50:43;25.90;99.90
58469;DHT22;44257;44.804;10.220;2023-08-17T05:53:09;26.10;99.90
58469;DHT22;44257;44.804;10.220;2023-08-17T05:55:35;26.40;99.90
58469;DHT22;44257;44.804;10.220;2023-08-17T05:58:01;26.60;99.90
58469;DHT22;44257;44.804;10.220;2023-08-17T06:00:27;26.70;99.90
58469;DHT22;44257;44.804;10.220;2023-08-17T06:02:53;26.90;99.90
58469;DHT22;44257;44.804;10.220;2023-08-17T06:05:23;27.20;99.90
58469;DHT22;44257;44.804;10.220;2023-08-17T06:07:50;27.40;99.90
58469;DHT22;44257;44.804;10.220;2023-08-17T06:10:16;27.60;99.90
58469;DHT22;44257;44.804;10.220;2023-08-17T06:12:42;27.80;99.90
58469;DHT22;44257;44.804;10.220;2023-08-17T06:15:08;27.90;99.90
58469;DHT22;44257;44.804;10.220;2023-08-17T06:17:34;28.00;99.90
58469;DHT22;44257;44.804;10.220;2023-08-17T06:20:00;28.40;99.90
58469;DHT22;44257;44.804;10.220;2023-08-17T06:22:25;28.70;99.90
58469;DHT22;44257;44.804;10.220;2023-08-17T06:24:51;28.90;99.90
58469;DHT22;44257;44.804;10.220;2023-08-17T06:27:17;29.10;99.90
58469;DHT22;44257;44.804;10.220;2023-08-17T06:29:43;29.40;99.90
58469;DHT22;44257;44.804;10.220;2023-08-17T06:32:10;29.50;99.90
58469;DHT22;44257;44.804;10.220;2023-08-17T06:34:36;29.50;99.50
58469;DHT22;44257;44.804;10.220;2023-08-17T06:37:03;29.40;99.80
58469;DHT22;44257;44.804;10.220;2023-08-17T06:39:29;29.40;99.50
58469;DHT22;44257;44.804;10.220;2023-08-17T06:41:55;29.40;99.90
58469;DHT22;44257;44.804;10.220;2023-08-17T06:44:21;29.50;99.90
58469;DHT22;44257;44.804;10.220;2023-08-17T06:46:47;29.60;99.90
58469;DHT22;44257;44.804;10.220;2023-08-17T06:49:13;29.60;99.90
58469;DHT22;44257;44.804;10.220;2023-08-17T06:51:39;29.60;99.90
58469;DHT22;44257;44.804;10.220;2023-08-17T06:54:07;29.40;99.90
58469;DHT22;44257;44.804;10.220;2023-08-17T06:56:33;29.40;99.90
58469;DHT22;44257;44.804;10.220;2023-08-17T06:58:59;29.40;99.90
58469;DHT22;44257;44.804;10.220;2023-08-17T07:01:24;29.50;99.90
58469;DHT22;44257;44.804;10.220;2023-08-17T07:03:51;29.50;99.90
58469;DHT22;44257;44.804;10.220;2023-08-17T07:06:17;29.60;99.90
58469;DHT22;44257;44.804;10.220;2023-08-17T07:08:43;29.60;99.90
58469;DHT22;44257;44.804;10.220;2023-08-17T07:11:08;29.80;99.90
58469;DHT22;44257;44.804;10.220;2023-08-17T07:13:35;30.00;99.90
58469;DHT22;44257;44.804;10.220;2023-08-17T07:16:01;30.10;99.90
58469;DHT22;44257;44.804;10.220;2023-08-17T07:18:27;30.20;99.90
58469;DHT22;44257;44.804;10.220;2023-08-17T07:20:52;30.30;99.90
58469;DHT22;44257;44.804;10.220;2023-08-17T07:23:18;30.40;99.90
58469;DHT22;44257;44.804;10.220;2023-08-17T07:25:44;30.50;99.90
58469;DHT22;44257;44.804;10.220;2023-08-17T07:28:10;30.60;99.40
58469;DHT22;44257;44.804;10.220;2023-08-17T07:30:35;30.70;99.80
58469;DHT22;44257;44.804;10.220;2023-08-17T07:33:02;30.70;99.90
58469;DHT22;44257;44.804;10.220;2023-08-17T07:35:28;30.80;99.90
58469;DHT22;44257;44.804;10.220;2023-08-17T07:37:55;30.80;99.60
58469;DHT22;44257;44.804;10.220;2023-08-17T07:40:21;30.90;99.80
58469;DHT22;44257;44.804;10.220;2023-08-17T07:42:48;30.90;97.80
58469;DHT22;44257;44.804;10.220;2023-08-17T07:45:14;30.90;98.70
58469;DHT22;44257;44.804;10.220;2023-08-17T07:47:41;30.90;98.60
58469;DHT22;44257;44.804;10.220;2023-08-17T07:50:07;31.10;97.00
58469;DHT22;44257;44.804;10.220;2023-08-17T07:52:33;31.10;98.40
58469;DHT22;44257;44.804;10.220;2023-08-17T07:54:59;31.30;97.10
58469;DHT22;44257;44.804;10.220;2023-08-17T07:57:26;31.30;96.80
58469;DHT22;44257;44.804;10.220;2023-08-17T07:59:51;31.20;97.30
58469;DHT22;44257;44.804;10.220;2023-08-17T08:02:19;31.30;96.90
58469;DHT22;44257;44.804;10.220;2023-08-17T08:04:45;31.30;94.10
58469;DHT22;44257;44.804;10.220;2023-08-17T08:07:10;31.30;94.60
58469;DHT22;44257;44.804;10.220;2023-08-17T08:09:36;31.40;95.40
58469;DHT22;44257;44.804;10.220;2023-08-17T08:12:03;31.50;93.80
58469;DHT22;44257;44.804;10.220;2023-08-17T08:14:29;31.60;93.30
58469;DHT22;44257;44.804;10.220;2023-08-17T08:16:55;31.50;92.80
58469;DHT22;44257;44.804;10.220;2023-08-17T08:19:21;31.40;92.90
58469;DHT22;44257;44.804;10.220;2023-08-17T08:21:47;31.40;93.30
58469;DHT22;44257;44.804;10.220;2023-08-17T08:24:13;31.60;94.70
58469;DHT22;44257;44.804;10.220;2023-08-17T08:26:39;31.80;93.10
58469;DHT22;44257;44.804;10.220;2023-08-17T08:29:05;31.80;92.00
58469;DHT22;44257;44.804;10.220;2023-08-17T08:31:30;31.70;92.40
58469;DHT22;44257;44.804;10.220;2023-08-17T08:33:56;31.60;92.70
58469;DHT22;44257;44.804;10.220;2023-08-17T08:36:22;31.60;92.90
58469;DHT22;44257;44.804;10.220;2023-08-17T08:38:48;31.40;92.40
58469;DHT22;44257;44.804;10.220;2023-08-17T08:41:14;31.40;92.80
58469;DHT22;44257;44.804;10.220;2023-08-17T08:43:40;31.30;92.90
58469;DHT22;44257;44.804;10.220;2023-08-17T08:46:06;31.20;93.20
58469;DHT22;44257;44.804;10.220;2023-08-17T08:48:32;31.20;93.10
58469;DHT22;44257;44.804;10.220;2023-08-17T08:51:00;31.20;93.10
58469;DHT22;44257;44.804;10.220;2023-08-17T08:53:46;31.20;92.80
58469;DHT22;44257;44.804;10.220;2023-08-17T08:56:19;31.10;93.40
58469;DHT22;44257;44.804;10.220;2023-08-17T08:58:47;31.30;92.90
58469;DHT22;44257;44.804;10.220;2023-08-17T09:01:15;31.20;92.40
58469;DHT22;44257;44.804;10.220;2023-08-17T09:03:42;31.20;92.90
58469;DHT22;44257;44.804;10.220;2023-08-17T09:06:08;31.20;93.20
58469;DHT22;44257;44.804;10.220;2023-08-17T09:08:35;31.40;92.90
58469;DHT22;44257;44.804;10.220;2023-08-17T09:11:01;31.40;93.40
58469;DHT22;44257;44.804;10.220;2023-08-17T09:13:27;31.50;93.30
58469;DHT22;44257;44.804;10.220;2023-08-17T09:15:53;31.40;93.50
58469;DHT22;44257;44.804;10.220;2023-08-17T09:18:19;31.50;92.90
58469;DHT22;44257;44.804;10.220;2023-08-17T09:23:39;31.60;93.30
58469;DHT22;44257;44.804;10.220;2023-08-17T09:26:09;31.60;93.40
58469;DHT22;44257;44.804;10.220;2023-08-17T09:28:39;31.60;93.20
58469;DHT22;44257;44.804;10.220;2023-08-17T09:31:06;31.60;92.90
58469;DHT22;44257;44.804;10.220;2023-08-17T09:33:32;31.50;92.50
58469;DHT22;44257;44.804;10.220;2023-08-17T09:35:59;31.40;92.60
58469;DHT22;44257;44.804;10.220;2023-08-17T09:38:26;31.40;93.20
58469;DHT22;44257;44.804;10.220;2023-08-17T09:40:52;31.50;92.90
58469;DHT22;44257;44.804;10.220;2023-08-17T09:43:19;31.40;92.90
58469;DHT22;44257;44.804;10.220;2023-08-17T09:45:47;31.50;92.90
58469;DHT22;44257;44.804;10.220;2023-08-17T09:48:19;31.60;93.00
58469;DHT22;44257;44.804;10.220;2023-08-17T09:50:47;31.80;92.80
58469;DHT22;44257;44.804;10.220;2023-08-17T09:53:16;32.00;92.10
58469;DHT22;44257;44.804;10.220;2023-08-17T09:55:44;31.90;91.80
58469;DHT22;44257;44.804;10.220;2023-08-17T09:58:11;31.80;92.20
58469;DHT22;44257;44.804;10.220;2023-08-17T10:00:48;31.60;92.40
58469;DHT22;44257;44.804;10.220;2023-08-17T10:03:16;31.80;93.30
58469;DHT22;44257;44.804;10.220;2023-08-17T10:05:54;32.00;91.80
58469;DHT22;44257;44.804;10.220;2023-08-17T10:08:23;32.10;91.50
58469;DHT22;44257;44.804;10.220;2023-08-17T10:10:49;32.00;91.80
58469;DHT22;44257;44.804;10.220;2023-08-17T10:13:26;32.10;91.90
58469;DHT22;44257;44.804;10.220;2023-08-17T10:18:50;32.10;91.90
58469;DHT22;44257;44.804;10.220;2023-08-17T10:21:29;32.30;92.40
58469;DHT22;44257;44.804;10.220;2023-08-17T10:23:57;32.60;92.20
58469;DHT22;44257;44.804;10.220;2023-08-17T10:26:24;32.70;90.90
58469;DHT22;44257;44.804;10.220;2023-08-17T10:28:51;32.60;91.00
58469;DHT22;44257;44.804;10.220;2023-08-17T10:31:18;32.50;92.00
58469;DHT22;44257;44.804;10.220;2023-08-17T10:33:46;32.60;91.50
58469;DHT22;44257;44.804;10.220;2023-08-17T10:36:14;32.80;92.00
58469;DHT22;44257;44.804;10.220;2023-08-17T10:38:40;32.90;91.20
58469;DHT22;44257;44.804;10.220;2023-08-17T10:41:14;33.00;91.60
58469;DHT22;44257;44.804;10.220;2023-08-17T10:44:00;33.10;93.10
58469;DHT22;44257;44.804;10.220;2023-08-17T10:46:37;33.20;92.10
58469;DHT22;44257;44.804;10.220;2023-08-17T10:49:04;33.40;90.70
58469;DHT22;44257;44.804;10.220;2023-08-17T10:51:31;33.30;90.90
58469;DHT22;44257;44.804;10.220;2023-08-17T10:53:59;33.30;90.90
58469;DHT22;44257;44.804;10.220;2023-08-17T10:56:29;33.50;91.00
58469;DHT22;44257;44.804;10.220;2023-08-17T10:59:02;33.60;91.00
58469;DHT22;44257;44.804;10.220;2023-08-17T11:01:40;33.80;90.30
58469;DHT22;44257;44.804;10.220;2023-08-17T11:04:10;33.90;90.20
58469;DHT22;44257;44.804;10.220;2023-08-17T11:06:36;34.00;89.80
58469;DHT22;44257;44.804;10.220;2023-08-17T11:09:07;34.10;89.70
58469;DHT22;44257;44.804;10.220;2023-08-17T11:11:33;34.20;90.90
58469;DHT22;44257;44.804;10.220;2023-08-17T11:13:59;34.20;89.40
58469;DHT22;44257;44.804;10.220;2023-08-17T11:16:25;34.20;89.50
58469;DHT22;44257;44.804;10.220;2023-08-17T11:18:51;34.20;90.10
58469;DHT22;44257;44.804;10.220;2023-08-17T11:21:17;34.40;89.90
58469;DHT22;44257;44.804;10.220;2023-08-17T11:23:43;34.50;89.70
58469;DHT22;44257;44.804;10.220;2023-08-17T11:26:10;34.60;88.00
58469;DHT22;44257;44.804;10.220;2023-08-17T11:28:36;34.50;88.40
58469;DHT22;44257;44.804;10.220;2023-08-17T11:31:12;34.50;90.70
58469;DHT22;44257;44.804;10.220;2023-08-17T11:33:39;34.70;90.50
58469;DHT22;44257;44.804;10.220;2023-08-17T11:36:07;34.80;89.30
58469;DHT22;44257;44.804;10.220;2023-08-17T11:38:38;35.00;89.70
58469;DHT22;44257;44.804;10.220;2023-08-17T11:41:05;35.20;86.90
58469;DHT22;44257;44.804;10.220;2023-08-17T11:43:33;35.10;85.70
58469;DHT22;44257;44.804;10.220;2023-08-17T11:46:00;34.90;87.50
58469;DHT22;44257;44.804;10.220;2023-08-17T11:48:27;34.80;87.70
58469;DHT22;44257;44.804;10.220;2023-08-17T11:50:53;34.70;86.60
58469;DHT22;44257;44.804;10.220;2023-08-17T11:53:23;34.50;86.90
58469;DHT22;44257;44.804;10.220;2023-08-17T11:55:50;34.30;87.20
58469;DHT22;44257;44.804;10.220;2023-08-17T11:58:16;34.20;88.70
58469;DHT22;44257;44.804;10.220;2023-08-17T12:00:44;34.00;87.80
58469;DHT22;44257;44.804;10.220;2023-08-17T12:03:14;33.80;89.20
58469;DHT22;44257;44.804;10.220;2023-08-17T12:05:42;33.60;89.80
58469;DHT22;44257;44.804;10.220;2023-08-17T12:08:09;33.80;89.10
58469;DHT22;44257;44.804;10.220;2023-08-17T12:10:37;33.80;89.10
58469;DHT22;44257;44.804;10.220;2023-08-17T12:13:03;34.10;89.90
58469;DHT22;44257;44.804;10.220;2023-08-17T12:15:33;34.50;90.10
58469;DHT22;44257;44.804;10.220;2023-08-17T12:18:01;34.80;87.40
58469;DHT22;44257;44.804;10.220;2023-08-17T12:20:27;34.90;86.80
58469;DHT22;44257;44.804;10.220;2023-08-17T12:22:53;34.90;86.50
58469;DHT22;44257;44.804;10.220;2023-08-17T12:25:23;34.80;87.60
58469;DHT22;44257;44.804;10.220;2023-08-17T12:27:49;34.80;86.50
58469;DHT22;44257;44.804;10.220;2023-08-17T12:30:27;34.70;86.30
58469;DHT22;44257;44.804;10.220;2023-08-17T12:32:54;34.40;86.50
58469;DHT22;44257;44.804;10.220;2023-08-17T12:35:19;34.10;87.00
58469;DHT22;44257;44.804;10.220;2023-08-17T12:37:47;33.90;87.30
58469;DHT22;44257;44.804;10.220;2023-08-17T12:40:13;33.70;88.70
58469;DHT22;44257;44.804;10.220;2023-08-17T12:42:39;33.60;87.80
58469;DHT22;44257;44.804;10.220;2023-08-17T12:45:05;33.40;88.20
58469;DHT22;44257;44.804;10.220;2023-08-17T12:47:31;33.20;89.00
58469;DHT22;44257;44.804;10.220;2023-08-17T12:49:57;33.00;89.60
58469;DHT22;44257;44.804;10.220;2023-08-17T12:52:23;32.90;89.80
58469;DHT22;44257;44.804;10.220;2023-08-17T12:54:49;32.80;90.00
58469;DHT22;44257;44.804;10.220;2023-08-17T12:57:14;32.70;90.10
58469;DHT22;44257;44.804;10.220;2023-08-17T12:59:40;32.50;90.30
58469;DHT22;44257;44.804;10.220;2023-08-17T13:02:06;32.40;90.70
58469;DHT22;44257;44.804;10.220;2023-08-17T13:04:32;32.40;90.90
58469;DHT22;44257;44.804;10.220;2023-08-17T13:06:58;32.30;91.30
58469;DHT22;44257;44.804;10.220;2023-08-17T13:09:23;32.10;91.40
58469;DHT22;44257;44.804;10.220;2023-08-17T13:11:49;32.00;91.60
58469;DHT22;44257;44.804;10.220;2023-08-17T13:14:15;31.90;91.90
58469;DHT22;44257;44.804;10.220;2023-08-17T13:16:42;31.70;92.20
58469;DHT22;44257;44.804;10.220;2023-08-17T13:19:08;31.60;92.30
58469;DHT22;44257;44.804;10.220;2023-08-17T13:21:34;31.50;92.60
58469;DHT22;44257;44.804;10.220;2023-08-17T13:24:00;31.50;92.70
58469;DHT22;44257;44.804;10.220;2023-08-17T13:26:26;31.40;92.90
58469;DHT22;44257;44.804;10.220;2023-08-17T13:28:51;31.30;93.30
58469;DHT22;44257;44.804;10.220;2023-08-17T13:31:17;31.30;93.50
58469;DHT22;44257;44.804;10.220;2023-08-17T13:33:43;31.20;93.80
58469;DHT22;44257;44.804;10.220;2023-08-17T13:36:09;31.10;94.10
58469;DHT22;44257;44.804;10.220;2023-08-17T13:38:34;31.00;94.30
58469;DHT22;44257;44.804;10.220;2023-08-17T13:41:00;31.00;94.30
58469;DHT22;44257;44.804;10.220;2023-08-17T13:43:26;30.90;94.60
58469;DHT22;44257;44.804;10.220;2023-08-17T13:45:52;30.90;95.70
58469;DHT22;44257;44.804;10.220;2023-08-17T13:48:17;30.90;95.20
58469;DHT22;44257;44.804;10.220;2023-08-17T13:50:43;30.80;95.70
58469;DHT22;44257;44.804;10.220;2023-08-17T13:53:10;30.70;95.40
58469;DHT22;44257;44.804;10.220;2023-08-17T13:55:36;30.70;95.50
58469;DHT22;44257;44.804;10.220;2023-08-17T13:58:02;30.60;96.60
58469;DHT22;44257;44.804;10.220;2023-08-17T14:00:29;30.60;97.20
58469;DHT22;44257;44.804;10.220;2023-08-17T14:02:54;30.50;97.60
58469;DHT22;44257;44.804;10.220;2023-08-17T14:05:20;30.30;97.50
58469;DHT22;44257;44.804;10.220;2023-08-17T14:07:47;30.20;98.10
58469;DHT22;44257;44.804;10.220;2023-08-17T14:10:13;30.10;99.90
58469;DHT22;44257;44.804;10.220;2023-08-17T14:12:39;30.10;99.90
58469;DHT22;44257;44.804;10.220;2023-08-17T14:15:06;30.00;99.90
58469;DHT22;44257;44.804;10.220;2023-08-17T14:17:32;30.00;99.90
58469;DHT22;44257;44.804;10.220;2023-08-17T14:19:57;30.00;99.90
58469;DHT22;44257;44.804;10.220;2023-08-17T14:22:23;29.90;99.90
58469;DHT22;44257;44.804;10.220;2023-08-17T14:24:49;29.90;99.90
58469;DHT22;44257;44.804;10.220;2023-08-17T14:27:16;29.80;99.60
58469;DHT22;44257;44.804;10.220;2023-08-17T14:29:42;29.90;99.90
58469;DHT22;44257;44.804;10.220;2023-08-17T14:32:07;29.80;99.80
58469;DHT22;44257;44.804;10.220;2023-08-17T14:34:33;29.80;99.90
58469;DHT22;44257;44.804;10.220;2023-08-17T14:36:59;29.80;99.40
58469;DHT22;44257;44.804;10.220;2023-08-17T14:39:25;29.90;99.60
58469;DHT22;44257;44.804;10.220;2023-08-17T14:41:51;29.80;99.90
58469;DHT22;44257;44.804;10.220;2023-08-17T14:44:18;29.90;99.90
58469;DHT22;44257;44.804;10.220;2023-08-17T14:46:44;29.90;99.90
58469;DHT22;44257;44.804;10.220;2023-08-17T14:49:10;29.80;99.90
58469;DHT22;44257;44.804;10.220;2023-08-17T14:51:40;29.80;99.90
58469;DHT22;44257;44.804;10.220;2023-08-17T14:54:07;29.80;99.90
58469;DHT22;44257;44.804;10.220;2023-08-17T14:56:33;29.70;99.90
58469;DHT22;44257;44.804;10.220;2023-08-17T14:59:00;29.70;99.90
58469;DHT22;44257;44.804;10.220;2023-08-17T15:01:28;29.70;99.90
58469;DHT22;44257;44.804;10.220;2023-08-17T15:03:53;29.60;99.90
58469;DHT22;44257;44.804;10.220;2023-08-17T15:06:19;29.60;99.90
58469;DHT22;44257;44.804;10.220;2023-08-17T15:08:50;29.50;99.90
58469;DHT22;44257;44.804;10.220;2023-08-17T15:11:16;29.50;99.90
58469;DHT22;44257;44.804;10.220;2023-08-17T15:13:42;29.40;99.90
58469;DHT22;44257;44.804;10.220;2023-08-17T15:16:08;29.40;99.90
58469;DHT22;44257;44.804;10.220;2023-08-17T15:18:34;29.40;99.90
58469;DHT22;44257;44.804;10.220;2023-08-17T15:21:00;29.40;99.90
58469;DHT22;44257;44.804;10.220;2023-08-17T15:23:26;29.30;99.90